Time;durP1;ratioP1;P1;durP2;ratioP2;P2;SDS_P1;SDS_P2;PMS_P1;PMS_P2;Temp;Humidity;BMP_temperature;BMP_pressure;BME280_temperature;BME280_humidity;BME280_pressure;Samples;Min_cycle;Max_cycle;Signal;HPM_P1;HPM_P2
2023/12/25 00:01:35;;;;;;;4.07;1.67;;;11.50;99.90;;;;;;5052414;28;20029;-44
2023/12/25 00:04:01;;;;;;;6.95;1.38;;;11.50;99.90;;;;;;5052556;28;20100;-46
2023/12/25 00:06:26;;;;;;;5.55;1.95;;;11.40;99.90;;;;;;5051538;28;20118;-44
2023/12/25 00:08:52;;;;;;;6.13;1.80;;;11.40;99.90;;;;;;5034495;28;20419;-44
2023/12/25 00:11:18;;;;;;;3.70;1.88;;;11.40;99.90;;;;;;5052249;28;20025;-45
2023/12/25 00:13:43;;;;;;;6.85;1.52;;;11.40;99.90;;;;;;5036652;28;20026;-45
2023/12/25 00:16:09;;;;;;;2.47;1.33;;;11.40;99.90;;;;;;5036795;28;20033;-46
2023/12/25 00:18:34;;;;;;;3.35;1.25;;;11.40;99.90;;;;;;5032306;28;20030;-45
2023/12/25 00:21:00;;;;;;;1.48;1.38;;;11.40;99.90;;;;;;5032079;28;20072;-44
2023/12/25 00:23:25;;;;;;;5.05;1.95;;;11.40;99.90;;;;;;5032101;28;20668;-44
2023/12/25 00:25:51;;;;;;;4.53;1.23;;;11.30;99.90;;;;;;5032279;28;20064;-49
2023/12/25 00:28:16;;;;;;;2.60;1.20;;;11.30;99.90;;;;;;5036612;28;20034;-45
2023/12/25 00:30:43;;;;;;;6.30;1.30;;;11.30;99.90;;;;;;5031902;28;20639;-44
2023/12/25 00:33:08;;;;;;;9.18;1.58;;;11.30;99.90;;;;;;5018601;28;20032;-40
2023/12/25 00:35:34;;;;;;;2.50;1.77;;;11.30;99.90;;;;;;5032152;28;20067;-43
2023/12/25 00:37:59;;;;;;;6.13;1.45;;;11.30;99.90;;;;;;5031915;28;20048;-47
2023/12/25 00:40:25;;;;;;;3.58;1.45;;;11.30;99.90;;;;;;5013975;28;20025;-44
2023/12/25 00:42:50;;;;;;;3.30;1.25;;;11.30;99.90;;;;;;5037933;28;20029;-48
2023/12/25 00:45:16;;;;;;;4.30;1.25;;;11.30;99.90;;;;;;5051570;28;20484;-45
2023/12/25 00:47:41;;;;;;;4.57;2.05;;;11.30;99.90;;;;;;5051818;28;20037;-44
2023/12/25 00:50:07;;;;;;;6.53;1.98;;;11.30;99.90;;;;;;5051743;28;20451;-46
2023/12/25 00:52:33;;;;;;;3.75;1.58;;;11.30;99.90;;;;;;5052064;23;20049;-44
2023/12/25 00:54:58;;;;;;;3.63;1.83;;;11.20;99.90;;;;;;5031501;28;20022;-44
2023/12/25 00:57:26;;;;;;;5.18;1.52;;;11.20;99.90;;;;;;5032000;28;20401;-44
2023/12/25 00:59:51;;;;;;;4.90;2.40;;;11.20;99.90;;;;;;5014187;28;20025;-43
2023/12/25 01:02:17;;;;;;;8.32;2.25;;;11.10;99.90;;;;;;5021020;28;20165;-44
2023/12/25 01:04:42;;;;;;;6.75;2.58;;;11.10;99.90;;;;;;4993653;28;20073;-46
2023/12/25 01:07:08;;;;;;;4.53;1.77;;;11.10;99.90;;;;;;5012014;28;20466;-46
2023/12/25 01:09:33;;;;;;;2.78;1.48;;;11.10;99.90;;;;;;5011876;28;20044;-42
2023/12/25 01:11:59;;;;;;;6.80;1.60;;;11.10;99.90;;;;;;5031377;28;20026;-48
2023/12/25 01:14:24;;;;;;;5.05;1.85;;;11.10;99.90;;;;;;5031447;28;20389;-45
2023/12/25 01:16:50;;;;;;;8.98;2.15;;;11.00;99.90;;;;;;5031750;28;20029;-42
2023/12/25 01:19:15;;;;;;;10.40;2.30;;;11.00;99.90;;;;;;5031587;28;20029;-45
2023/12/25 01:21:41;;;;;;;7.85;1.92;;;11.00;99.90;;;;;;5013689;28;20454;-44
2023/12/25 01:24:06;;;;;;;4.65;1.77;;;11.00;99.90;;;;;;5014384;28;20021;-42
2023/12/25 01:26:32;;;;;;;2.47;1.40;;;11.00;99.90;;;;;;5032401;28;20030;-44
2023/12/25 01:28:57;;;;;;;5.28;2.00;;;11.00;99.90;;;;;;5034130;28;20021;-46
2023/12/25 01:31:23;;;;;;;7.22;1.88;;;11.00;99.90;;;;;;5031582;28;20096;-43
2023/12/25 01:33:48;;;;;;;5.50;2.00;;;11.00;99.90;;;;;;5031510;28;20030;-45
2023/12/25 01:36:14;;;;;;;6.20;1.92;;;11.00;99.90;;;;;;5031254;28;20033;-40
2023/12/25 01:38:39;;;;;;;10.52;4.60;;;10.90;99.90;;;;;;5031298;28;20030;-45
2023/12/25 01:41:05;;;;;;;8.10;2.20;;;11.00;99.90;;;;;;5013410;28;20025;-43
2023/12/25 01:43:30;;;;;;;8.18;1.85;;;11.00;99.90;;;;;;5030926;28;20148;-43
2023/12/25 01:45:56;;;;;;;9.75;2.10;;;11.00;99.90;;;;;;5031270;28;20511;-47
2023/12/25 01:48:24;;;;;;;6.53;1.90;;;11.00;99.90;;;;;;5031094;28;20049;-43
2023/12/25 01:50:50;;;;;;;7.68;2.17;;;11.00;99.90;;;;;;5013445;28;20061;-46
2023/12/25 01:53:16;;;;;;;4.18;1.55;;;11.00;99.90;;;;;;5030748;28;20033;-44
2023/12/25 01:55:41;;;;;;;7.30;1.58;;;11.00;99.90;;;;;;5031200;28;20379;-42
2023/12/25 01:58:07;;;;;;;6.20;2.00;;;11.00;99.90;;;;;;5013321;28;20080;-44
2023/12/25 02:00:33;;;;;;;10.23;2.83;;;11.00;99.90;;;;;;5013459;28;20029;-42
2023/12/25 02:03:00;;;;;;;11.05;3.15;;;11.10;99.90;;;;;;5030786;28;20112;-44
2023/12/25 02:05:26;;;;;;;8.68;2.40;;;11.00;99.90;;;;;;5031032;28;20017;-46
2023/12/25 02:07:52;;;;;;;6.47;1.50;;;11.00;99.90;;;;;;5031076;28;20091;-42
2023/12/25 02:10:29;;;;;;;6.15;1.42;;;11.00;99.90;;;;;;5030963;28;20085;-45
2023/12/25 02:12:55;;;;;;;14.65;2.67;;;11.00;99.90;;;;;;5030502;28;20100;-42
2023/12/25 02:15:22;;;;;;;13.10;3.28;;;11.10;99.90;;;;;;5032008;28;20017;-42
2023/12/25 02:17:49;;;;;;;13.63;2.50;;;11.00;99.90;;;;;;5034655;28;20553;-46
2023/12/25 02:20:14;;;;;;;3.13;1.65;;;11.00;99.90;;;;;;5016638;28;20037;-43
2023/12/25 02:22:41;;;;;;;3.97;1.52;;;11.00;99.90;;;;;;5033945;28;20507;-44
2023/12/25 02:25:23;;;;;;;6.05;1.92;;;11.00;99.90;;;;;;5034096;28;20397;-44
2023/12/25 02:27:48;;;;;;;3.85;1.75;;;11.10;99.90;;;;;;5035228;28;20026;-45
2023/12/25 02:30:14;;;;;;;5.85;2.20;;;11.10;99.90;;;;;;5034199;28;20028;-43
2023/12/25 02:32:41;;;;;;;11.57;2.13;;;11.10;99.90;;;;;;5033885;28;20029;-43
2023/12/25 02:35:06;;;;;;;5.85;1.80;;;11.10;99.90;;;;;;5034010;28;20018;-44
2023/12/25 02:37:32;;;;;;;7.78;1.83;;;11.10;99.90;;;;;;5034103;28;20033;-43
2023/12/25 02:39:57;;;;;;;2.65;1.52;;;11.10;99.90;;;;;;5016473;28;20035;-46
2023/12/25 02:42:23;;;;;;;5.07;1.65;;;11.00;99.90;;;;;;5015887;28;20026;-46
2023/12/25 02:44:48;;;;;;;2.88;1.45;;;11.10;99.90;;;;;;5034069;28;20037;-43
2023/12/25 02:47:14;;;;;;;9.68;1.60;;;11.10;99.90;;;;;;5034026;28;20025;-43
2023/12/25 02:49:39;;;;;;;3.67;1.20;;;11.10;99.90;;;;;;5033823;28;20034;-42
2023/12/25 02:52:05;;;;;;;7.53;1.60;;;11.00;99.90;;;;;;5033412;28;20519;-45
2023/12/25 02:54:30;;;;;;;10.63;1.70;;;11.00;99.90;;;;;;5015978;28;20049;-43
2023/12/25 02:56:56;;;;;;;2.92;1.40;;;11.10;99.90;;;;;;5034211;28;20025;-43
2023/12/25 02:59:21;;;;;;;12.13;3.50;;;11.10;99.90;;;;;;5033624;28;20033;-44
2023/12/25 03:01:47;;;;;;;5.38;1.20;;;11.10;99.90;;;;;;5033465;28;20032;-46
2023/12/25 03:04:12;;;;;;;5.07;1.52;;;11.00;99.90;;;;;;5033719;28;20029;-42
2023/12/25 03:06:38;;;;;;;2.97;1.27;;;11.00;99.90;;;;;;5016165;28;20022;-45
2023/12/25 03:09:03;;;;;;;4.28;1.10;;;11.00;99.90;;;;;;5033326;28;20032;-48
2023/12/25 03:11:29;;;;;;;3.88;1.05;;;11.00;99.90;;;;;;5033317;28;20022;-45
2023/12/25 03:13:54;;;;;;;2.05;1.35;;;11.00;99.90;;;;;;5033404;28;20029;-43
2023/12/25 03:16:20;;;;;;;5.32;1.15;;;11.00;99.90;;;;;;5015734;28;20018;-47
2023/12/25 03:18:45;;;;;;;4.32;0.80;;;11.10;99.90;;;;;;5033342;28;20049;-43
2023/12/25 03:21:11;;;;;;;1.00;0.60;;;11.00;99.90;;;;;;5033027;28;20095;-45
2023/12/25 03:23:37;;;;;;;0.60;0.60;;;11.10;99.90;;;;;;5033159;28;20504;-48
2023/12/25 03:26:02;;;;;;;2.53;1.23;;;11.00;99.90;;;;;;5015372;28;20105;-44
2023/12/25 03:28:29;;;;;;;3.03;0.93;;;11.00;99.90;;;;;;5032633;28;20060;-45
2023/12/25 03:30:54;;;;;;;3.50;0.75;;;11.00;99.90;;;;;;5032975;28;20025;-45
2023/12/25 03:33:20;;;;;;;1.23;0.65;;;11.10;99.90;;;;;;5032809;28;20424;-46
2023/12/25 03:35:46;;;;;;;2.03;0.60;;;11.00;99.90;;;;;;5033094;28;20076;-42
2023/12/25 03:38:12;;;;;;;2.20;0.80;;;11.00;99.90;;;;;;5032938;28;20017;-45
2023/12/25 03:40:39;;;;;;;2.45;0.70;;;11.00;99.90;;;;;;5032870;28;20037;-44
2023/12/25 03:43:04;;;;;;;1.52;0.40;;;11.00;99.90;;;;;;5032610;28;20394;-44
2023/12/25 03:45:30;;;;;;;1.27;0.60;;;11.00;99.90;;;;;;5032727;28;20108;-46
2023/12/25 03:47:55;;;;;;;0.40;0.40;;;11.10;99.90;;;;;;5032654;28;20116;-46
2023/12/25 03:50:21;;;;;;;2.38;0.45;;;11.00;99.90;;;;;;5014720;28;20108;-45
2023/12/25 03:52:46;;;;;;;3.03;0.65;;;11.00;99.90;;;;;;5032661;28;20463;-47
2023/12/25 03:55:13;;;;;;;0.57;0.40;;;11.00;99.90;;;;;;5032492;28;20033;-46
2023/12/25 03:57:39;;;;;;;1.88;0.55;;;11.00;99.90;;;;;;5032544;28;20045;-46
2023/12/25 04:00:05;;;;;;;1.17;0.60;;;11.00;99.90;;;;;;5032411;28;20106;-47
2023/12/25 04:02:31;;;;;;;1.38;0.73;;;11.00;99.90;;;;;;5031919;28;20068;-44
2023/12/25 04:04:56;;;;;;;1.15;0.50;;;11.00;99.90;;;;;;5014635;28;20501;-45
2023/12/25 04:07:22;;;;;;;1.45;0.50;;;11.00;99.90;;;;;;5032417;28;20120;-44
2023/12/25 04:09:47;;;;;;;4.70;0.68;;;11.00;99.90;;;;;;5032240;28;20392;-45
2023/12/25 04:12:13;;;;;;;1.15;0.50;;;11.00;99.90;;;;;;5031921;28;20025;-47
2023/12/25 04:14:39;;;;;;;0.57;0.57;;;11.10;99.90;;;;;;5032245;28;20030;-43
2023/12/25 04:17:05;;;;;;;1.98;0.60;;;11.10;99.90;;;;;;5032402;28;20023;-44
2023/12/25 04:19:31;;;;;;;1.10;0.40;;;11.10;99.90;;;;;;5032376;28;20100;-44
2023/12/25 04:21:57;;;;;;;2.58;0.68;;;11.10;99.90;;;;;;5032587;28;20622;-45
2023/12/25 04:24:22;;;;;;;0.43;0.43;;;11.10;99.90;;;;;;5014994;28;20068;-44
2023/12/25 04:26:48;;;;;;;3.30;0.65;;;11.10;99.90;;;;;;5032531;28;20026;-47
2023/12/25 04:29:13;;;;;;;1.27;0.50;;;11.10;99.90;;;;;;5032039;28;20029;-47
2023/12/25 04:31:39;;;;;;;1.30;0.70;;;11.10;99.90;;;;;;5031790;28;20018;-45
2023/12/25 04:34:04;;;;;;;0.50;0.40;;;11.10;99.90;;;;;;5031639;28;20087;-46
2023/12/25 04:36:30;;;;;;;0.40;0.40;;;11.10;99.90;;;;;;5014115;28;20493;-49
2023/12/25 04:38:55;;;;;;;0.82;0.57;;;11.10;99.90;;;;;;5014100;28;20044;-44
2023/12/25 04:41:21;;;;;;;0.20;0.20;;;11.10;99.90;;;;;;5031410;28;20033;-48
2023/12/25 04:43:47;;;;;;;1.48;0.65;;;11.10;99.90;;;;;;5031855;28;20041;-46
2023/12/25 04:46:13;;;;;;;1.75;0.60;;;11.10;99.90;;;;;;5031661;28;20477;-47
2023/12/25 04:48:38;;;;;;;0.52;0.52;;;11.00;99.90;;;;;;5031607;28;20036;-46
2023/12/25 04:51:04;;;;;;;0.90;0.50;;;11.00;99.90;;;;;;5013646;28;20038;-49
2023/12/25 04:53:31;;;;;;;0.77;0.40;;;11.00;99.90;;;;;;5031082;28;20493;-51
2023/12/25 04:55:57;;;;;;;0.20;0.20;;;11.00;99.90;;;;;;5031483;28;20032;-45
2023/12/25 04:58:23;;;;;;;0.35;0.35;;;10.90;99.90;;;;;;5031514;28;20104;-49
2023/12/25 05:00:48;;;;;;;1.73;0.40;;;10.80;99.90;;;;;;5031387;28;20417;-46
2023/12/25 05:03:14;;;;;;;0.40;0.40;;;10.80;99.90;;;;;;5031442;28;20033;-45
2023/12/25 05:05:39;;;;;;;1.40;0.30;;;10.80;99.90;;;;;;5031468;28;20029;-46
2023/12/25 05:08:05;;;;;;;0.40;0.38;;;10.80;99.90;;;;;;5013614;28;20022;-47
2023/12/25 05:10:31;;;;;;;0.30;0.30;;;10.70;99.90;;;;;;5031392;28;20315;-44
2023/12/25 05:12:56;;;;;;;3.03;0.40;;;10.60;99.90;;;;;;5031429;28;20080;-45
2023/12/25 05:15:22;;;;;;;1.95;0.30;;;10.60;99.90;;;;;;5031657;28;20025;-43
2023/12/25 05:17:47;;;;;;;0.20;0.20;;;10.60;99.90;;;;;;5031865;28;20129;-43
2023/12/25 05:20:13;;;;;;;0.40;0.40;;;10.60;99.90;;;;;;5014201;28;20087;-42
2023/12/25 05:22:38;;;;;;;0.52;0.30;;;10.60;99.90;;;;;;5031391;28;20038;-44
2023/12/25 05:25:05;;;;;;;0.30;0.30;;;10.50;99.90;;;;;;5031324;28;20120;-43
2023/12/25 05:27:30;;;;;;;0.20;0.20;;;10.60;99.90;;;;;;5031206;28;20148;-48
2023/12/25 05:29:56;;;;;;;0.20;0.20;;;10.60;99.90;;;;;;5031290;28;20116;-45
2023/12/25 05:32:21;;;;;;;0.47;0.22;;;10.50;99.90;;;;;;5031061;28;20027;-46
2023/12/25 05:34:47;;;;;;;0.43;0.20;;;10.50;99.90;;;;;;5031218;28;20103;-44
2023/12/25 05:37:12;;;;;;;0.20;0.20;;;10.50;99.90;;;;;;5031136;28;20037;-47
2023/12/25 05:39:38;;;;;;;0.20;0.20;;;10.50;99.90;;;;;;5031218;28;20037;-44
2023/12/25 05:42:04;;;;;;;1.85;0.22;;;10.50;99.90;;;;;;5031329;28;20076;-49
2023/12/25 05:44:29;;;;;;;0.20;0.20;;;10.50;99.90;;;;;;5031181;28;20485;-45
2023/12/25 05:46:55;;;;;;;0.20;0.20;;;10.50;99.90;;;;;;5013585;28;20057;-45
2023/12/25 05:49:21;;;;;;;0.63;0.22;;;10.50;99.90;;;;;;5031393;28;20381;-48
2023/12/25 05:51:47;;;;;;;0.20;0.20;;;10.50;99.90;;;;;;5034151;28;20125;-44
2023/12/25 05:54:12;;;;;;;0.93;0.20;;;10.50;99.90;;;;;;5034787;28;20477;-48
2023/12/25 05:56:37;;;;;;;0.20;0.20;;;10.50;99.90;;;;;;5034879;28;20040;-45
2023/12/25 05:59:04;;;;;;;0.40;0.40;;;10.50;99.90;;;;;;5034853;28;20463;-47
2023/12/25 06:01:30;;;;;;;0.20;0.20;;;10.50;99.90;;;;;;5034660;28;20489;-44
2023/12/25 06:03:55;;;;;;;0.20;0.20;;;10.50;99.90;;;;;;5034739;28;20018;-47
2023/12/25 06:06:21;;;;;;;0.20;0.20;;;10.50;99.90;;;;;;5034682;28;20021;-46
2023/12/25 06:08:46;;;;;;;0.47;0.47;;;10.50;99.90;;;;;;5034602;28;20037;-44
2023/12/25 06:11:12;;;;;;;0.10;0.10;;;10.50;99.90;;;;;;5034234;28;20025;-49
2023/12/25 06:13:37;;;;;;;0.20;0.20;;;10.50;99.90;;;;;;5034557;28;20032;-46
2023/12/25 06:16:03;;;;;;;0.20;0.20;;;10.50;99.90;;;;;;5034527;28;20028;-45
2023/12/25 06:18:29;;;;;;;0.38;0.38;;;10.50;99.90;;;;;;5034483;28;20080;-47
2023/12/25 06:20:54;;;;;;;0.20;0.20;;;10.60;99.90;;;;;;5034222;28;20075;-48
2023/12/25 06:23:20;;;;;;;0.20;0.20;;;10.50;99.90;;;;;;5033899;28;20523;-46
2023/12/25 06:25:46;;;;;;;0.25;0.25;;;10.60;99.90;;;;;;5034151;28;20083;-44
2023/12/25 06:28:11;;;;;;;0.28;0.28;;;10.50;99.90;;;;;;5034135;28;20583;-48
2023/12/25 06:30:37;;;;;;;0.20;0.20;;;10.50;99.90;;;;;;5034073;28;20105;-49
2023/12/25 06:33:03;;;;;;;0.30;0.30;;;10.50;99.90;;;;;;5033793;28;20397;-48
2023/12/25 06:35:28;;;;;;;1.58;0.38;;;10.40;99.90;;;;;;5034004;28;20025;-46
2023/12/25 06:37:54;;;;;;;1.88;0.57;;;10.40;99.90;;;;;;5033870;28;20084;-45
2023/12/25 06:40:19;;;;;;;0.30;0.30;;;10.30;99.90;;;;;;5034260;28;20385;-49
2023/12/25 06:42:45;;;;;;;0.50;0.30;;;10.30;99.90;;;;;;5033707;28;20040;-46
2023/12/25 06:45:10;;;;;;;0.20;0.20;;;10.30;99.90;;;;;;5034171;28;20025;-46
2023/12/25 06:47:36;;;;;;;0.47;0.20;;;10.30;99.90;;;;;;5033945;28;20033;-44
2023/12/25 06:50:02;;;;;;;0.35;0.35;;;10.30;99.90;;;;;;5033796;28;20485;-52
2023/12/25 06:52:27;;;;;;;0.17;0.17;;;10.30;99.90;;;;;;5034016;28;20034;-44
2023/12/25 06:54:53;;;;;;;0.30;0.20;;;10.20;99.90;;;;;;5016289;28;20318;-41
2023/12/25 06:57:19;;;;;;;1.02;0.22;;;10.20;99.90;;;;;;5016440;28;20022;-44
2023/12/25 06:59:45;;;;;;;0.20;0.20;;;10.20;99.90;;;;;;5033953;28;20028;-44
2023/12/25 07:02:10;;;;;;;0.20;0.20;;;10.10;99.90;;;;;;5032286;28;20034;-44
2023/12/25 07:04:36;;;;;;;0.38;0.30;;;10.10;99.90;;;;;;5033684;28;20026;-45
2023/12/25 07:07:03;;;;;;;2.30;0.30;;;10.10;99.90;;;;;;5033819;28;20036;-48
2023/12/25 07:09:29;;;;;;;0.20;0.20;;;10.00;99.90;;;;;;5033432;28;20420;-48
2023/12/25 07:11:54;;;;;;;0.22;0.22;;;10.00;99.90;;;;;;5033400;28;20033;-49
2023/12/25 07:14:20;;;;;;;0.30;0.30;;;10.00;99.90;;;;;;5015704;28;20108;-45
2023/12/25 07:16:45;;;;;;;0.73;0.30;;;10.00;99.90;;;;;;5033490;28;20025;-43
2023/12/25 07:19:11;;;;;;;0.25;0.25;;;10.00;99.90;;;;;;5015380;28;20029;-46
2023/12/25 07:21:36;;;;;;;0.88;0.30;;;10.00;99.90;;;;;;5032750;28;20026;-50
2023/12/25 07:24:04;;;;;;;0.20;0.20;;;10.00;99.90;;;;;;5033194;28;20029;-47
2023/12/25 07:26:29;;;;;;;0.70;0.55;;;10.00;99.90;;;;;;5033286;28;20021;-45
2023/12/25 07:28:55;;;;;;;0.40;0.35;;;10.00;99.90;;;;;;5032955;28;20030;-51
2023/12/25 07:31:20;;;;;;;0.20;0.20;;;10.00;99.90;;;;;;5032744;28;20025;-44
2023/12/25 07:33:47;;;;;;;0.32;0.20;;;10.00;99.90;;;;;;5032990;28;20442;-44
2023/12/25 07:36:12;;;;;;;0.25;0.25;;;9.90;99.90;;;;;;5015164;28;20032;-45
2023/12/25 07:38:38;;;;;;;0.30;0.30;;;9.90;99.90;;;;;;5033018;28;20026;-45
2023/12/25 07:41:10;;;;;;;0.20;0.20;;;9.90;99.90;;;;;;5032665;28;20025;-45
2023/12/25 07:43:36;;;;;;;0.20;0.20;;;9.90;99.90;;;;;;5032654;28;20031;-44
2023/12/25 07:46:05;;;;;;;1.25;0.30;;;10.00;99.90;;;;;;5032916;28;20076;-46
2023/12/25 07:48:31;;;;;;;0.30;0.30;;;9.90;99.90;;;;;;5014804;28;20052;-45
2023/12/25 07:50:57;;;;;;;0.38;0.38;;;10.00;99.90;;;;;;5032536;28;20064;-43
2023/12/25 07:53:22;;;;;;;0.20;0.20;;;10.00;99.90;;;;;;5014520;28;20128;-45
2023/12/25 07:55:48;;;;;;;0.68;0.60;;;10.00;99.90;;;;;;5032579;28;20025;-49
2023/12/25 07:58:14;;;;;;;0.30;0.30;;;10.00;99.90;;;;;;5032882;28;20044;-44
2023/12/25 08:00:42;;;;;;;1.02;0.30;;;10.00;99.90;;;;;;5032485;28;20568;-48
2023/12/25 08:03:08;;;;;;;0.28;0.28;;;10.00;99.90;;;;;;5014193;28;20079;-44
2023/12/25 08:05:34;;;;;;;0.28;0.28;;;10.10;99.90;;;;;;5032678;28;20471;-49
2023/12/25 08:08:00;;;;;;;0.43;0.20;;;10.00;99.90;;;;;;5032462;28;20026;-45
2023/12/25 08:10:25;;;;;;;2.10;0.40;;;10.00;99.90;;;;;;5032394;28;20515;-44
2023/12/25 08:12:51;;;;;;;0.65;0.50;;;10.00;99.90;;;;;;5031752;28;20021;-47
2023/12/25 08:15:16;;;;;;;0.25;0.25;;;10.00;99.90;;;;;;5032307;28;20469;-44
2023/12/25 08:17:42;;;;;;;0.40;0.40;;;10.00;99.90;;;;;;5032126;28;20118;-41
2023/12/25 08:20:09;;;;;;;0.85;0.52;;;10.00;99.90;;;;;;5032268;28;20035;-43
2023/12/25 08:22:35;;;;;;;0.43;0.43;;;9.90;99.90;;;;;;5014047;28;20036;-46
2023/12/25 08:25:01;;;;;;;0.45;0.40;;;10.00;99.90;;;;;;5032003;28;20025;-45
2023/12/25 08:27:26;;;;;;;0.50;0.50;;;10.00;99.90;;;;;;5032150;28;20053;-45
2023/12/25 08:29:52;;;;;;;0.38;0.38;;;10.00;99.90;;;;;;5031963;28;20393;-44
2023/12/25 08:32:18;;;;;;;0.77;0.45;;;10.00;99.90;;;;;;5031585;28;20048;-47
2023/12/25 08:34:44;;;;;;;1.58;0.47;;;10.00;99.90;;;;;;5032292;28;20053;-47
2023/12/25 08:37:10;;;;;;;0.40;0.40;;;10.00;99.90;;;;;;5032286;28;20052;-44
2023/12/25 08:39:36;;;;;;;0.40;0.40;;;10.00;99.90;;;;;;5031946;28;20081;-44
2023/12/25 08:42:03;;;;;;;0.40;0.40;;;10.00;99.90;;;;;;5031396;28;20496;-44
2023/12/25 08:44:29;;;;;;;0.40;0.40;;;10.00;99.90;;;;;;5031888;28;20047;-45
2023/12/25 08:46:54;;;;;;;0.30;0.30;;;10.00;99.90;;;;;;5031617;28;20037;-45
2023/12/25 08:49:20;;;;;;;0.20;0.20;;;10.00;99.90;;;;;;5013851;28;20060;-45
2023/12/25 08:51:46;;;;;;;0.35;0.35;;;10.00;99.90;;;;;;5031337;28;20042;-43
2023/12/25 08:54:11;;;;;;;0.30;0.30;;;10.00;99.90;;;;;;5013976;28;20025;-42
2023/12/25 08:56:37;;;;;;;0.30;0.30;;;10.00;99.90;;;;;;5031804;28;20107;-42
2023/12/25 08:59:05;;;;;;;0.20;0.20;;;10.00;99.90;;;;;;5031769;28;20022;-47
2023/12/25 09:01:31;;;;;;;0.30;0.30;;;10.10;99.90;;;;;;5013550;28;20033;-44
2023/12/25 09:03:57;;;;;;;2.65;0.40;;;10.10;99.90;;;;;;5013824;28;20022;-45
2023/12/25 09:06:23;;;;;;;0.50;0.50;;;10.10;99.90;;;;;;5031715;28;20068;-44
2023/12/25 09:08:49;;;;;;;0.50;0.50;;;10.10;99.90;;;;;;5031563;28;20374;-41
2023/12/25 09:11:16;;;;;;;0.20;0.20;;;10.10;99.90;;;;;;5013528;28;20036;-42
2023/12/25 09:13:42;;;;;;;0.93;0.50;;;10.10;99.90;;;;;;5013690;28;20031;-42
2023/12/25 09:16:08;;;;;;;0.95;0.30;;;10.10;99.90;;;;;;5013662;28;20117;-41
2023/12/25 09:18:34;;;;;;;0.50;0.50;;;10.10;99.90;;;;;;5031509;28;20477;-43
2023/12/25 09:20:59;;;;;;;2.58;0.70;;;10.10;99.90;;;;;;5031484;28;20084;-43
2023/12/25 09:23:25;;;;;;;0.28;0.28;;;10.20;99.90;;;;;;5013490;28;20033;-43
2023/12/25 09:25:50;;;;;;;0.20;0.20;;;10.20;99.90;;;;;;5015488;28;20037;-43
2023/12/25 09:28:16;;;;;;;0.30;0.30;;;10.20;99.90;;;;;;5035380;28;20025;-63
2023/12/25 09:30:41;;;;;;;0.32;0.32;;;10.20;99.90;;;;;;5035570;28;20396;-47
2023/12/25 09:33:07;;;;;;;0.40;0.40;;;10.30;99.90;;;;;;5035105;28;20029;-50
2023/12/25 09:35:33;;;;;;;0.20;0.20;;;10.30;99.90;;;;;;5035342;28;20021;-48
2023/12/25 09:37:58;;;;;;;0.75;0.28;;;10.30;99.90;;;;;;5035284;28;20549;-51
2023/12/25 09:40:24;;;;;;;0.25;0.20;;;10.30;99.90;;;;;;5030554;28;20382;-57
2023/12/25 09:42:50;;;;;;;0.38;0.20;;;10.30;99.90;;;;;;5015072;28;20198;-46
2023/12/25 09:45:16;;;;;;;0.30;0.30;;;10.30;99.90;;;;;;5021870;28;20026;-46
2023/12/25 09:47:43;;;;;;;0.30;0.30;;;10.30;99.90;;;;;;5023082;28;20428;-46
2023/12/25 09:50:09;;;;;;;0.32;0.32;;;10.40;99.90;;;;;;5017004;28;20029;-49
2023/12/25 09:52:35;;;;;;;0.30;0.30;;;10.40;99.90;;;;;;5034292;28;20026;-56
2023/12/25 09:55:01;;;;;;;0.20;0.20;;;10.50;99.90;;;;;;5012766;28;20120;-45
2023/12/25 09:57:29;;;;;;;0.20;0.20;;;10.40;99.90;;;;;;5017124;28;20029;-45
2023/12/25 09:59:56;;;;;;;0.20;0.20;;;10.50;99.90;;;;;;5006506;28;20037;-42
2023/12/25 10:02:22;;;;;;;0.30;0.30;;;10.50;99.90;;;;;;4997109;28;20572;-41
2023/12/25 10:04:52;;;;;;;0.20;0.20;;;10.50;99.90;;;;;;4997408;28;20026;-45
2023/12/25 10:07:20;;;;;;;0.57;0.40;;;10.50;99.90;;;;;;5015262;28;20041;-42
2023/12/25 10:09:57;;;;;;;0.30;0.30;;;10.50;99.90;;;;;;5023703;28;20488;-44
2023/12/25 10:12:23;;;;;;;0.35;0.35;;;10.50;99.90;;;;;;5016556;28;20092;-43
2023/12/25 10:14:48;;;;;;;0.20;0.20;;;10.60;99.90;;;;;;5014655;28;20432;-43
2023/12/25 10:17:14;;;;;;;0.30;0.20;;;10.60;99.90;;;;;;5034452;28;20028;-42
2023/12/25 10:19:51;;;;;;;0.20;0.20;;;10.60;99.90;;;;;;5034496;28;20025;-43
2023/12/25 10:22:42;;;;;;;0.20;0.20;;;10.70;99.90;;;;;;5034081;28;20457;-47
2023/12/25 10:25:10;;;;;;;0.20;0.20;;;10.70;99.90;;;;;;5014562;28;20128;-42
2023/12/25 10:27:40;;;;;;;0.20;0.20;;;10.70;99.90;;;;;;5034363;28;20025;-43
2023/12/25 10:30:27;;;;;;;0.43;0.43;;;10.70;99.90;;;;;;5031992;28;20025;-40
2023/12/25 10:33:14;;;;;;;0.20;0.20;;;10.70;99.90;;;;;;5025283;28;20524;-43
2023/12/25 10:35:41;;;;;;;0.73;0.40;;;10.70;99.90;;;;;;5014812;28;20034;-48
2023/12/25 10:38:07;;;;;;;0.20;0.20;;;10.80;99.90;;;;;;5033969;28;20156;-47
2023/12/25 10:40:34;;;;;;;0.20;0.20;;;10.80;99.90;;;;;;5032402;28;20021;-45
2023/12/25 10:42:59;;;;;;;0.22;0.22;;;10.80;99.90;;;;;;5031979;28;20029;-44
2023/12/25 10:45:26;;;;;;;1.65;0.30;;;10.90;99.90;;;;;;5033612;28;20036;-43
2023/12/25 10:47:54;;;;;;;0.40;0.40;;;10.80;99.90;;;;;;5034085;28;20029;-47
2023/12/25 10:50:27;;;;;;;0.30;0.30;;;10.90;99.90;;;;;;5016126;28;20057;-44
2023/12/25 10:53:06;;;;;;;0.20;0.20;;;10.90;99.90;;;;;;5033507;28;20048;-43
2023/12/25 10:55:39;;;;;;;0.75;0.20;;;10.90;99.90;;;;;;5016148;28;20076;-49
2023/12/25 10:58:11;;;;;;;0.65;0.40;;;10.90;99.90;;;;;;5032007;28;20092;-42
2023/12/25 11:00:44;;;;;;;1.85;1.45;;;10.80;99.90;;;;;;5033190;28;20396;-42
2023/12/25 11:03:14;;;;;;;0.40;0.40;;;10.90;99.90;;;;;;5033265;28;20034;-42
2023/12/25 11:05:40;;;;;;;0.40;0.40;;;10.90;99.90;;;;;;5033721;28;20108;-44
2023/12/25 11:08:07;;;;;;;15.80;8.80;;;10.90;99.90;;;;;;5033439;28;20029;-44
2023/12/25 11:10:34;;;;;;;0.30;0.30;;;10.90;99.90;;;;;;5033619;28;20037;-44
2023/12/25 11:13:01;;;;;;;0.20;0.20;;;10.90;99.90;;;;;;5032394;28;20481;-43
2023/12/25 11:15:26;;;;;;;0.20;0.20;;;10.90;99.90;;;;;;5033605;28;20035;-43
2023/12/25 11:17:53;;;;;;;0.20;0.20;;;11.00;99.90;;;;;;5015854;28;20400;-45
2023/12/25 11:20:19;;;;;;;0.10;0.10;;;11.00;99.90;;;;;;5014097;28;20061;-42
2023/12/25 11:22:47;;;;;;;0.20;0.20;;;11.00;99.90;;;;;;5033332;28;20030;-44
2023/12/25 11:25:19;;;;;;;0.17;0.17;;;11.00;99.90;;;;;;5015586;28;20026;-43
2023/12/25 11:27:53;;;;;;;0.30;0.20;;;11.00;99.90;;;;;;5015743;28;20504;-41
2023/12/25 11:30:21;;;;;;;0.20;0.20;;;11.00;99.90;;;;;;5033559;28;20033;-40
2023/12/25 11:32:49;;;;;;;0.40;0.40;;;11.00;99.90;;;;;;5023039;28;20061;-46
2023/12/25 11:35:15;;;;;;;0.28;0.28;;;11.00;99.90;;;;;;5013630;28;20026;-39
2023/12/25 11:37:41;;;;;;;0.20;0.20;;;11.00;99.90;;;;;;5013887;28;20121;-46
2023/12/25 11:40:08;;;;;;;0.20;0.20;;;11.00;99.90;;;;;;5030606;28;20034;-47
2023/12/25 11:42:35;;;;;;;0.30;0.30;;;11.00;99.90;;;;;;5009451;28;20152;-49
2023/12/25 11:45:03;;;;;;;0.20;0.20;;;11.00;99.90;;;;;;5012623;28;20121;-55
2023/12/25 11:47:40;;;;;;;0.30;0.30;;;11.00;99.90;;;;;;5021667;28;20041;-49
2023/12/25 11:50:08;;;;;;;0.20;0.20;;;11.00;99.90;;;;;;5032939;28;20030;-48
2023/12/25 11:52:43;;;;;;;0.30;0.30;;;11.00;99.90;;;;;;5032824;28;20060;-48
2023/12/25 11:55:09;;;;;;;0.40;0.40;;;10.90;99.90;;;;;;5032991;28;20025;-51
2023/12/25 11:57:35;;;;;;;0.82;0.30;;;10.90;99.90;;;;;;5032979;28;20022;-46
2023/12/25 12:00:01;;;;;;;0.20;0.20;;;10.90;99.90;;;;;;5011350;28;20493;-48
2023/12/25 12:02:27;;;;;;;0.30;0.30;;;10.90;99.90;;;;;;4994889;28;20120;-50
2023/12/25 12:04:52;;;;;;;1.10;0.20;;;10.90;99.90;;;;;;4995283;28;20514;-43
2023/12/25 12:07:18;;;;;;;0.32;0.32;;;11.00;99.90;;;;;;5012792;28;20034;-47
2023/12/25 12:09:43;;;;;;;0.20;0.20;;;11.00;99.90;;;;;;5001072;28;20028;-47
2023/12/25 12:12:09;;;;;;;0.60;0.38;;;11.00;99.90;;;;;;5011221;28;20033;-47
2023/12/25 12:14:37;;;;;;;0.30;0.30;;;11.00;99.90;;;;;;5012555;28;20028;-46
2023/12/25 12:17:03;;;;;;;0.30;0.30;;;11.00;99.90;;;;;;5012546;28;20109;-49
2023/12/25 12:19:29;;;;;;;0.20;0.20;;;11.10;99.90;;;;;;5012415;28;20026;-50
2023/12/25 12:21:55;;;;;;;0.20;0.20;;;11.10;99.90;;;;;;4996636;28;20033;-47
2023/12/25 12:24:28;;;;;;;0.30;0.30;;;11.10;99.90;;;;;;5017734;28;20037;-47
2023/12/25 12:26:54;;;;;;;0.17;0.17;;;11.10;99.90;;;;;;4998951;28;20068;-47
2023/12/25 12:29:20;;;;;;;0.30;0.30;;;11.10;99.90;;;;;;4996653;28;20136;-48
2023/12/25 12:31:46;;;;;;;3.17;2.72;;;11.10;99.90;;;;;;4994475;28;20026;-46
2023/12/25 12:34:11;;;;;;;0.38;0.35;;;11.10;99.90;;;;;;4994583;28;20036;-45
2023/12/25 12:36:37;;;;;;;0.38;0.38;;;11.20;99.90;;;;;;4994665;28;20053;-48
2023/12/25 12:39:06;;;;;;;0.30;0.30;;;11.20;99.90;;;;;;4994925;28;20037;-49
2023/12/25 12:41:31;;;;;;;2.70;0.38;;;11.20;99.90;;;;;;5013850;28;20462;-47